sensor_id;sensor_type;location;lat;lon;timestamp;P1;durP1;ratioP1;P2;durP2;ratioP2
51901;SDS011;37929;53.218;6.548;2023-02-28T00:00:23;4.78;;;1.75;;
51901;SDS011;37929;53.218;6.548;2023-02-28T00:02:49;5.32;;;1.90;;
51901;SDS011;37929;53.218;6.548;2023-02-28T00:05:19;6.43;;;2.40;;
51901;SDS011;37929;53.218;6.548;2023-02-28T00:07:46;4.22;;;1.77;;
51901;SDS011;37929;53.218;6.548;2023-02-28T00:10:14;5.57;;;2.15;;
51901;SDS011;37929;53.218;6.548;2023-02-28T00:12:55;5.90;;;2.10;;
51901;SDS011;37929;53.218;6.548;2023-02-28T00:15:25;5.35;;;2.63;;
51901;SDS011;37929;53.218;6.548;2023-02-28T00:17:51;6.85;;;1.60;;
51901;SDS011;37929;53.218;6.548;2023-02-28T00:20:17;4.28;;;1.77;;
51901;SDS011;37929;53.218;6.548;2023-02-28T00:22:45;4.07;;;2.15;;
51901;SDS011;37929;53.218;6.548;2023-02-28T00:25:13;3.85;;;1.92;;
51901;SDS011;37929;53.218;6.548;2023-02-28T00:27:40;4.18;;;1.65;;
51901;SDS011;37929;53.218;6.548;2023-02-28T00:30:07;4.85;;;2.10;;
51901;SDS011;37929;53.218;6.548;2023-02-28T00:32:35;5.60;;;1.88;;
51901;SDS011;37929;53.218;6.548;2023-02-28T00:35:03;5.90;;;1.90;;
51901;SDS011;37929;53.218;6.548;2023-02-28T00:37:29;4.38;;;2.10;;
51901;SDS011;37929;53.218;6.548;2023-02-28T00:39:55;4.05;;;1.67;;
51901;SDS011;37929;53.218;6.548;2023-02-28T00:42:21;6.00;;;2.17;;
51901;SDS011;37929;53.218;6.548;2023-02-28T00:44:48;5.93;;;1.92;;
51901;SDS011;37929;53.218;6.548;2023-02-28T00:47:13;4.38;;;2.00;;
51901;SDS011;37929;53.218;6.548;2023-02-28T00:49:39;2.53;;;1.58;;
51901;SDS011;37929;53.218;6.548;2023-02-28T00:52:05;4.35;;;2.50;;
51901;SDS011;37929;53.218;6.548;2023-02-28T00:54:31;4.30;;;1.60;;
51901;SDS011;37929;53.218;6.548;2023-02-28T00:56:56;3.17;;;1.80;;
51901;SDS011;37929;53.218;6.548;2023-02-28T00:59:22;2.92;;;1.60;;
51901;SDS011;37929;53.218;6.548;2023-02-28T01:01:48;5.85;;;1.83;;
51901;SDS011;37929;53.218;6.548;2023-02-28T01:04:14;6.13;;;1.95;;
51901;SDS011;37929;53.218;6.548;2023-02-28T01:06:40;6.03;;;1.75;;
51901;SDS011;37929;53.218;6.548;2023-02-28T01:09:06;3.47;;;1.70;;
51901;SDS011;37929;53.218;6.548;2023-02-28T01:11:32;5.55;;;2.00;;
51901;SDS011;37929;53.218;6.548;2023-02-28T01:13:59;2.88;;;2.00;;
51901;SDS011;37929;53.218;6.548;2023-02-28T01:16:26;3.50;;;1.85;;
51901;SDS011;37929;53.218;6.548;2023-02-28T01:18:52;6.88;;;2.15;;
51901;SDS011;37929;53.218;6.548;2023-02-28T01:21:19;3.75;;;2.22;;
51901;SDS011;37929;53.218;6.548;2023-02-28T01:23:46;5.00;;;1.92;;
51901;SDS011;37929;53.218;6.548;2023-02-28T01:26:18;5.38;;;2.20;;
51901;SDS011;37929;53.218;6.548;2023-02-28T01:28:46;2.83;;;1.70;;
51901;SDS011;37929;53.218;6.548;2023-02-28T01:31:12;3.88;;;1.58;;
51901;SDS011;37929;53.218;6.548;2023-02-28T01:33:38;4.35;;;2.00;;
51901;SDS011;37929;53.218;6.548;2023-02-28T01:36:11;4.97;;;2.17;;
51901;SDS011;37929;53.218;6.548;2023-02-28T01:38:38;6.22;;;1.98;;
51901;SDS011;37929;53.218;6.548;2023-02-28T01:41:05;6.13;;;1.90;;
51901;SDS011;37929;53.218;6.548;2023-02-28T01:43:53;3.45;;;1.55;;
51901;SDS011;37929;53.218;6.548;2023-02-28T01:46:22;3.15;;;1.92;;
51901;SDS011;37929;53.218;6.548;2023-02-28T01:49:10;4.57;;;2.00;;
51901;SDS011;37929;53.218;6.548;2023-02-28T01:51:43;4.03;;;1.67;;
51901;SDS011;37929;53.218;6.548;2023-02-28T01:54:24;4.80;;;2.13;;
51901;SDS011;37929;53.218;6.548;2023-02-28T01:56:56;7.70;;;2.20;;
51901;SDS011;37929;53.218;6.548;2023-02-28T01:59:41;3.47;;;1.70;;
51901;SDS011;37929;53.218;6.548;2023-02-28T02:02:20;4.30;;;1.90;;
51901;SDS011;37929;53.218;6.548;2023-02-28T02:04:53;5.30;;;1.88;;
51901;SDS011;37929;53.218;6.548;2023-02-28T02:07:26;4.13;;;1.88;;
51901;SDS011;37929;53.218;6.548;2023-02-28T02:21:22;5.07;;;1.73;;
51901;SDS011;37929;53.218;6.548;2023-02-28T02:24:03;3.30;;;1.70;;
51901;SDS011;37929;53.218;6.548;2023-02-28T02:29:54;2.80;;;1.60;;
51901;SDS011;37929;53.218;6.548;2023-02-28T02:38:14;2.42;;;1.50;;
51901;SDS011;37929;53.218;6.548;2023-02-28T02:40:47;3.83;;;1.60;;
51901;SDS011;37929;53.218;6.548;2023-02-28T02:49:04;3.60;;;1.50;;
51901;SDS011;37929;53.218;6.548;2023-02-28T02:51:35;5.82;;;1.73;;
51901;SDS011;37929;53.218;6.548;2023-02-28T02:54:11;5.65;;;1.52;;
51901;SDS011;37929;53.218;6.548;2023-02-28T02:56:41;4.55;;;1.50;;
51901;SDS011;37929;53.218;6.548;2023-02-28T02:59:11;2.55;;;1.52;;
51901;SDS011;37929;53.218;6.548;2023-02-28T03:01:38;3.13;;;1.40;;
51901;SDS011;37929;53.218;6.548;2023-02-28T03:04:10;3.80;;;1.70;;
51901;SDS011;37929;53.218;6.548;2023-02-28T03:06:41;5.07;;;1.75;;
51901;SDS011;37929;53.218;6.548;2023-02-28T03:09:07;2.45;;;1.42;;
51901;SDS011;37929;53.218;6.548;2023-02-28T03:11:32;3.55;;;1.70;;
51901;SDS011;37929;53.218;6.548;2023-02-28T03:14:05;3.45;;;2.33;;
51901;SDS011;37929;53.218;6.548;2023-02-28T03:32:53;5.05;;;3.13;;
51901;SDS011;37929;53.218;6.548;2023-02-28T03:35:31;8.82;;;3.85;;
51901;SDS011;37929;53.218;6.548;2023-02-28T03:38:06;5.65;;;3.40;;
51901;SDS011;37929;53.218;6.548;2023-02-28T03:40:45;6.40;;;4.15;;
51901;SDS011;37929;53.218;6.548;2023-02-28T03:43:18;6.75;;;4.60;;
51901;SDS011;37929;53.218;6.548;2023-02-28T03:45:49;7.80;;;5.13;;
51901;SDS011;37929;53.218;6.548;2023-02-28T03:48:23;8.35;;;5.28;;
51901;SDS011;37929;53.218;6.548;2023-02-28T03:50:55;6.82;;;4.70;;
51901;SDS011;37929;53.218;6.548;2023-02-28T03:53:37;6.72;;;5.07;;
51901;SDS011;37929;53.218;6.548;2023-02-28T03:56:21;7.63;;;4.82;;
51901;SDS011;37929;53.218;6.548;2023-02-28T03:58:57;8.90;;;5.50;;
51901;SDS011;37929;53.218;6.548;2023-02-28T04:03:58;8.43;;;5.65;;
51901;SDS011;37929;53.218;6.548;2023-02-28T04:06:24;13.68;;;6.05;;
51901;SDS011;37929;53.218;6.548;2023-02-28T04:08:51;9.55;;;5.65;;
51901;SDS011;37929;53.218;6.548;2023-02-28T04:11:27;10.43;;;6.00;;
51901;SDS011;37929;53.218;6.548;2023-02-28T04:14:00;7.88;;;5.60;;
51901;SDS011;37929;53.218;6.548;2023-02-28T04:16:27;8.73;;;5.22;;
51901;SDS011;37929;53.218;6.548;2023-02-28T04:18:53;10.07;;;5.60;;
51901;SDS011;37929;53.218;6.548;2023-02-28T04:21:32;10.10;;;5.32;;
51901;SDS011;37929;53.218;6.548;2023-02-28T04:24:00;7.78;;;5.10;;
51901;SDS011;37929;53.218;6.548;2023-02-28T04:26:31;8.35;;;5.45;;
51901;SDS011;37929;53.218;6.548;2023-02-28T04:29:01;9.27;;;5.60;;
51901;SDS011;37929;53.218;6.548;2023-02-28T04:31:28;8.35;;;5.32;;
51901;SDS011;37929;53.218;6.548;2023-02-28T04:33:54;8.50;;;5.05;;
51901;SDS011;37929;53.218;6.548;2023-02-28T04:36:20;7.15;;;4.72;;
51901;SDS011;37929;53.218;6.548;2023-02-28T04:38:47;6.28;;;4.55;;
51901;SDS011;37929;53.218;6.548;2023-02-28T04:41:14;6.35;;;4.60;;
51901;SDS011;37929;53.218;6.548;2023-02-28T04:43:40;8.75;;;4.50;;
51901;SDS011;37929;53.218;6.548;2023-02-28T04:46:06;7.15;;;4.68;;
51901;SDS011;37929;53.218;6.548;2023-02-28T04:48:33;7.00;;;4.47;;
51901;SDS011;37929;53.218;6.548;2023-02-28T04:51:04;6.80;;;4.90;;
51901;SDS011;37929;53.218;6.548;2023-02-28T04:53:33;5.90;;;4.00;;
51901;SDS011;37929;53.218;6.548;2023-02-28T04:55:59;6.88;;;4.25;;
51901;SDS011;37929;53.218;6.548;2023-02-28T04:58:25;7.07;;;4.43;;
51901;SDS011;37929;53.218;6.548;2023-02-28T05:00:52;7.45;;;4.70;;
51901;SDS011;37929;53.218;6.548;2023-02-28T05:03:18;10.38;;;4.38;;
51901;SDS011;37929;53.218;6.548;2023-02-28T05:05:46;6.57;;;4.05;;
51901;SDS011;37929;53.218;6.548;2023-02-28T05:08:12;8.27;;;4.53;;
51901;SDS011;37929;53.218;6.548;2023-02-28T05:10:37;6.93;;;4.20;;
51901;SDS011;37929;53.218;6.548;2023-02-28T05:13:03;8.40;;;4.53;;
51901;SDS011;37929;53.218;6.548;2023-02-28T05:15:29;7.25;;;4.53;;
51901;SDS011;37929;53.218;6.548;2023-02-28T05:17:55;7.10;;;4.38;;
51901;SDS011;37929;53.218;6.548;2023-02-28T05:20:20;6.97;;;4.28;;
51901;SDS011;37929;53.218;6.548;2023-02-28T05:22:46;8.40;;;4.22;;
51901;SDS011;37929;53.218;6.548;2023-02-28T05:25:16;6.68;;;4.43;;
51901;SDS011;37929;53.218;6.548;2023-02-28T05:27:43;7.97;;;4.22;;
51901;SDS011;37929;53.218;6.548;2023-02-28T05:30:09;8.27;;;4.20;;
51901;SDS011;37929;53.218;6.548;2023-02-28T05:32:39;6.32;;;4.13;;
51901;SDS011;37929;53.218;6.548;2023-02-28T05:35:09;6.97;;;4.10;;
51901;SDS011;37929;53.218;6.548;2023-02-28T05:37:36;8.07;;;4.40;;
51901;SDS011;37929;53.218;6.548;2023-02-28T05:40:03;8.95;;;4.20;;
51901;SDS011;37929;53.218;6.548;2023-02-28T05:42:36;9.35;;;4.68;;
51901;SDS011;37929;53.218;6.548;2023-02-28T05:45:03;10.18;;;5.47;;
51901;SDS011;37929;53.218;6.548;2023-02-28T05:47:29;9.18;;;5.43;;
51901;SDS011;37929;53.218;6.548;2023-02-28T05:49:55;8.77;;;5.05;;
51901;SDS011;37929;53.218;6.548;2023-02-28T05:52:21;8.68;;;4.93;;
51901;SDS011;37929;53.218;6.548;2023-02-28T05:54:48;8.63;;;4.97;;
51901;SDS011;37929;53.218;6.548;2023-02-28T05:57:14;9.48;;;4.90;;
51901;SDS011;37929;53.218;6.548;2023-02-28T05:59:40;9.07;;;5.18;;
51901;SDS011;37929;53.218;6.548;2023-02-28T06:02:06;8.65;;;5.47;;
51901;SDS011;37929;53.218;6.548;2023-02-28T06:04:37;7.68;;;5.10;;
51901;SDS011;37929;53.218;6.548;2023-02-28T06:07:03;9.43;;;5.65;;
51901;SDS011;37929;53.218;6.548;2023-02-28T06:09:29;10.95;;;6.18;;
51901;SDS011;37929;53.218;6.548;2023-02-28T06:11:57;11.95;;;6.38;;
51901;SDS011;37929;53.218;6.548;2023-02-28T06:16:56;9.60;;;5.25;;
51901;SDS011;37929;53.218;6.548;2023-02-28T06:19:22;9.48;;;6.05;;
51901;SDS011;37929;53.218;6.548;2023-02-28T06:21:50;11.80;;;5.80;;
51901;SDS011;37929;53.218;6.548;2023-02-28T06:24:18;10.23;;;5.18;;
51901;SDS011;37929;53.218;6.548;2023-02-28T06:26:45;9.38;;;5.25;;
51901;SDS011;37929;53.218;6.548;2023-02-28T06:29:12;11.32;;;6.05;;
51901;SDS011;37929;53.218;6.548;2023-02-28T06:31:42;10.48;;;5.72;;
51901;SDS011;37929;53.218;6.548;2023-02-28T06:34:09;12.07;;;6.07;;
51901;SDS011;37929;53.218;6.548;2023-02-28T06:36:37;11.25;;;6.20;;
51901;SDS011;37929;53.218;6.548;2023-02-28T06:39:03;10.43;;;6.15;;
51901;SDS011;37929;53.218;6.548;2023-02-28T06:41:30;10.27;;;5.68;;
51901;SDS011;37929;53.218;6.548;2023-02-28T06:43:56;10.27;;;5.28;;
51901;SDS011;37929;53.218;6.548;2023-02-28T06:46:22;10.73;;;6.05;;
51901;SDS011;37929;53.218;6.548;2023-02-28T06:48:48;10.07;;;5.85;;
51901;SDS011;37929;53.218;6.548;2023-02-28T06:51:15;11.52;;;6.40;;
51901;SDS011;37929;53.218;6.548;2023-02-28T06:53:45;11.27;;;6.10;;
51901;SDS011;37929;53.218;6.548;2023-02-28T06:56:12;10.50;;;6.38;;
51901;SDS011;37929;53.218;6.548;2023-02-28T06:58:39;13.05;;;7.15;;
51901;SDS011;37929;53.218;6.548;2023-02-28T07:01:05;12.10;;;7.70;;
51901;SDS011;37929;53.218;6.548;2023-02-28T07:03:32;13.02;;;6.95;;
51901;SDS011;37929;53.218;6.548;2023-02-28T07:05:58;14.60;;;7.00;;
51901;SDS011;37929;53.218;6.548;2023-02-28T07:08:24;14.20;;;7.57;;
51901;SDS011;37929;53.218;6.548;2023-02-28T07:10:52;15.25;;;6.53;;
51901;SDS011;37929;53.218;6.548;2023-02-28T07:13:19;15.75;;;7.78;;
51901;SDS011;37929;53.218;6.548;2023-02-28T07:18:41;13.80;;;7.78;;
51901;SDS011;37929;53.218;6.548;2023-02-28T07:21:08;12.55;;;7.07;;
51901;SDS011;37929;53.218;6.548;2023-02-28T07:23:35;14.43;;;7.93;;
51901;SDS011;37929;53.218;6.548;2023-02-28T07:26:03;13.13;;;7.25;;
51901;SDS011;37929;53.218;6.548;2023-02-28T07:28:29;14.00;;;7.53;;
51901;SDS011;37929;53.218;6.548;2023-02-28T07:30:55;13.98;;;7.78;;
51901;SDS011;37929;53.218;6.548;2023-02-28T07:33:20;14.88;;;8.15;;
51901;SDS011;37929;53.218;6.548;2023-02-28T07:35:46;13.95;;;8.07;;
51901;SDS011;37929;53.218;6.548;2023-02-28T07:38:12;15.13;;;7.45;;
51901;SDS011;37929;53.218;6.548;2023-02-28T07:40:39;14.23;;;8.23;;
51901;SDS011;37929;53.218;6.548;2023-02-28T07:43:05;15.30;;;8.15;;
51901;SDS011;37929;53.218;6.548;2023-02-28T07:45:30;13.27;;;7.57;;
51901;SDS011;37929;53.218;6.548;2023-02-28T07:47:59;15.15;;;8.43;;
51901;SDS011;37929;53.218;6.548;2023-02-28T07:50:25;16.02;;;7.43;;
51901;SDS011;37929;53.218;6.548;2023-02-28T07:52:55;14.00;;;7.10;;
51901;SDS011;37929;53.218;6.548;2023-02-28T07:55:22;16.98;;;8.60;;
51901;SDS011;37929;53.218;6.548;2023-02-28T07:57:48;14.57;;;7.60;;
51901;SDS011;37929;53.218;6.548;2023-02-28T08:00:14;14.85;;;8.35;;
51901;SDS011;37929;53.218;6.548;2023-02-28T08:02:40;13.98;;;8.10;;
51901;SDS011;37929;53.218;6.548;2023-02-28T08:05:06;13.25;;;7.53;;
51901;SDS011;37929;53.218;6.548;2023-02-28T08:07:33;13.60;;;7.55;;
51901;SDS011;37929;53.218;6.548;2023-02-28T08:09:59;14.40;;;7.90;;
51901;SDS011;37929;53.218;6.548;2023-02-28T08:12:25;14.00;;;7.70;;
51901;SDS011;37929;53.218;6.548;2023-02-28T08:14:51;16.98;;;7.45;;
51901;SDS011;37929;53.218;6.548;2023-02-28T08:17:17;13.40;;;7.28;;
51901;SDS011;37929;53.218;6.548;2023-02-28T08:19:45;12.90;;;8.07;;
51901;SDS011;37929;53.218;6.548;2023-02-28T08:22:11;14.50;;;6.45;;
51901;SDS011;37929;53.218;6.548;2023-02-28T08:24:37;16.50;;;7.47;;
51901;SDS011;37929;53.218;6.548;2023-02-28T08:27:03;12.52;;;7.55;;
51901;SDS011;37929;53.218;6.548;2023-02-28T08:29:29;14.73;;;7.60;;
51901;SDS011;37929;53.218;6.548;2023-02-28T08:31:55;13.70;;;7.22;;
51901;SDS011;37929;53.218;6.548;2023-02-28T08:34:21;13.95;;;7.70;;
51901;SDS011;37929;53.218;6.548;2023-02-28T08:36:48;12.90;;;7.85;;
51901;SDS011;37929;53.218;6.548;2023-02-28T08:39:14;14.10;;;7.45;;
51901;SDS011;37929;53.218;6.548;2023-02-28T08:41:39;12.52;;;7.95;;
51901;SDS011;37929;53.218;6.548;2023-02-28T08:44:07;17.00;;;7.72;;
51901;SDS011;37929;53.218;6.548;2023-02-28T08:46:33;12.32;;;7.63;;
51901;SDS011;37929;53.218;6.548;2023-02-28T08:48:58;12.68;;;6.95;;
51901;SDS011;37929;53.218;6.548;2023-02-28T08:51:27;14.13;;;7.85;;
51901;SDS011;37929;53.218;6.548;2023-02-28T08:53:54;14.48;;;7.50;;
51901;SDS011;37929;53.218;6.548;2023-02-28T08:56:22;13.30;;;7.55;;
51901;SDS011;37929;53.218;6.548;2023-02-28T08:58:49;14.82;;;8.25;;
51901;SDS011;37929;53.218;6.548;2023-02-28T09:01:19;14.20;;;7.55;;
51901;SDS011;37929;53.218;6.548;2023-02-28T09:03:48;13.13;;;7.85;;
51901;SDS011;37929;53.218;6.548;2023-02-28T09:06:15;13.77;;;7.40;;
51901;SDS011;37929;53.218;6.548;2023-02-28T09:08:43;13.70;;;7.32;;
51901;SDS011;37929;53.218;6.548;2023-02-28T09:11:09;13.20;;;8.30;;
51901;SDS011;37929;53.218;6.548;2023-02-28T09:13:35;13.75;;;7.75;;
51901;SDS011;37929;53.218;6.548;2023-02-28T09:16:01;14.05;;;8.07;;
51901;SDS011;37929;53.218;6.548;2023-02-28T09:18:29;12.93;;;6.95;;
51901;SDS011;37929;53.218;6.548;2023-02-28T09:20:55;12.75;;;7.03;;
51901;SDS011;37929;53.218;6.548;2023-02-28T09:23:23;13.98;;;7.18;;
51901;SDS011;37929;53.218;6.548;2023-02-28T09:25:49;12.95;;;7.35;;
51901;SDS011;37929;53.218;6.548;2023-02-28T09:28:17;14.05;;;7.60;;
51901;SDS011;37929;53.218;6.548;2023-02-28T09:30:44;11.70;;;7.00;;
51901;SDS011;37929;53.218;6.548;2023-02-28T09:33:11;16.67;;;7.90;;
51901;SDS011;37929;53.218;6.548;2023-02-28T09:35:38;14.38;;;8.55;;
51901;SDS011;37929;53.218;6.548;2023-02-28T09:38:04;15.77;;;7.60;;
51901;SDS011;37929;53.218;6.548;2023-02-28T09:40:30;11.40;;;6.80;;
51901;SDS011;37929;53.218;6.548;2023-02-28T09:42:57;14.65;;;8.10;;
51901;SDS011;37929;53.218;6.548;2023-02-28T09:45:33;11.68;;;7.40;;
51901;SDS011;37929;53.218;6.548;2023-02-28T09:48:03;12.00;;;7.85;;
51901;SDS011;37929;53.218;6.548;2023-02-28T09:50:40;12.82;;;7.95;;
51901;SDS011;37929;53.218;6.548;2023-02-28T09:55:55;12.48;;;7.15;;
51901;SDS011;37929;53.218;6.548;2023-02-28T10:04:22;12.77;;;7.63;;
51901;SDS011;37929;53.218;6.548;2023-02-28T10:07:00;11.68;;;7.30;;
51901;SDS011;37929;53.218;6.548;2023-02-28T10:09:42;14.85;;;5.95;;
51901;SDS011;37929;53.218;6.548;2023-02-28T10:12:11;10.15;;;6.30;;
51901;SDS011;37929;53.218;6.548;2023-02-28T10:14:39;12.13;;;6.97;;
51901;SDS011;37929;53.218;6.548;2023-02-28T10:17:17;9.77;;;6.53;;
51901;SDS011;37929;53.218;6.548;2023-02-28T10:19:51;10.57;;;7.10;;
51901;SDS011;37929;53.218;6.548;2023-02-28T10:22:53;12.18;;;7.18;;
51901;SDS011;37929;53.218;6.548;2023-02-28T10:25:40;11.50;;;6.43;;
51901;SDS011;37929;53.218;6.548;2023-02-28T10:28:16;12.45;;;6.55;;
51901;SDS011;37929;53.218;6.548;2023-02-28T10:30:49;11.15;;;6.15;;
51901;SDS011;37929;53.218;6.548;2023-02-28T10:36:02;9.32;;;5.38;;
51901;SDS011;37929;53.218;6.548;2023-02-28T10:38:32;11.13;;;6.35;;
51901;SDS011;37929;53.218;6.548;2023-02-28T10:41:07;10.45;;;5.70;;
51901;SDS011;37929;53.218;6.548;2023-02-28T10:43:38;8.80;;;5.60;;
51901;SDS011;37929;53.218;6.548;2023-02-28T10:48:36;10.57;;;5.88;;
51901;SDS011;37929;53.218;6.548;2023-02-28T10:51:08;8.48;;;5.20;;
51901;SDS011;37929;53.218;6.548;2023-02-28T10:53:45;8.48;;;5.03;;
51901;SDS011;37929;53.218;6.548;2023-02-28T10:56:23;8.38;;;5.15;;
51901;SDS011;37929;53.218;6.548;2023-02-28T11:01:40;6.60;;;4.68;;
51901;SDS011;37929;53.218;6.548;2023-02-28T11:07:01;10.13;;;5.10;;
51901;SDS011;37929;53.218;6.548;2023-02-28T11:09:33;7.53;;;5.03;;
51901;SDS011;37929;53.218;6.548;2023-02-28T11:12:06;6.18;;;4.63;;
51901;SDS011;37929;53.218;6.548;2023-02-28T11:14:47;6.85;;;5.00;;
51901;SDS011;37929;53.218;6.548;2023-02-28T11:17:49;6.38;;;4.32;;
51901;SDS011;37929;53.218;6.548;2023-02-28T11:20:13;6.65;;;3.90;;
51901;SDS011;37929;53.218;6.548;2023-02-28T11:22:48;9.45;;;4.65;;
51901;SDS011;37929;53.218;6.548;2023-02-28T11:25:18;8.77;;;4.28;;
51901;SDS011;37929;53.218;6.548;2023-02-28T11:27:54;13.27;;;7.53;;
51901;SDS011;37929;53.218;6.548;2023-02-28T11:30:40;10.57;;;5.65;;
51901;SDS011;37929;53.218;6.548;2023-02-28T11:35:48;8.00;;;5.18;;
51901;SDS011;37929;53.218;6.548;2023-02-28T11:38:15;7.70;;;3.97;;
51901;SDS011;37929;53.218;6.548;2023-02-28T11:43:52;5.25;;;3.42;;
51901;SDS011;37929;53.218;6.548;2023-02-28T11:51:53;5.30;;;3.50;;
51901;SDS011;37929;53.218;6.548;2023-02-28T11:57:03;7.10;;;4.65;;
51901;SDS011;37929;53.218;6.548;2023-02-28T12:03:27;6.57;;;4.72;;
51901;SDS011;37929;53.218;6.548;2023-02-28T12:11:47;6.90;;;4.13;;
51901;SDS011;37929;53.218;6.548;2023-02-28T12:28:59;7.47;;;4.18;;
51901;SDS011;37929;53.218;6.548;2023-02-28T12:31:41;5.22;;;3.67;;
51901;SDS011;37929;53.218;6.548;2023-02-28T12:34:16;7.68;;;4.75;;
51901;SDS011;37929;53.218;6.548;2023-02-28T12:36:48;6.95;;;4.40;;
51901;SDS011;37929;53.218;6.548;2023-02-28T12:39:26;5.47;;;3.47;;
51901;SDS011;37929;53.218;6.548;2023-02-28T12:42:13;6.45;;;4.10;;
51901;SDS011;37929;53.218;6.548;2023-02-28T12:47:23;7.05;;;3.63;;
51901;SDS011;37929;53.218;6.548;2023-02-28T12:49:51;6.95;;;4.10;;
51901;SDS011;37929;53.218;6.548;2023-02-28T12:52:19;6.85;;;3.70;;
51901;SDS011;37929;53.218;6.548;2023-02-28T12:55:01;5.20;;;3.85;;
51901;SDS011;37929;53.218;6.548;2023-02-28T12:57:40;6.28;;;4.38;;
51901;SDS011;37929;53.218;6.548;2023-02-28T13:00:14;6.70;;;3.85;;
51901;SDS011;37929;53.218;6.548;2023-02-28T13:10:44;7.72;;;4.50;;
51901;SDS011;37929;53.218;6.548;2023-02-28T13:13:20;6.30;;;4.00;;
51901;SDS011;37929;53.218;6.548;2023-02-28T13:16:05;5.85;;;4.45;;
51901;SDS011;37929;53.218;6.548;2023-02-28T13:18:39;6.22;;;4.18;;
51901;SDS011;37929;53.218;6.548;2023-02-28T13:21:27;6.80;;;4.32;;
51901;SDS011;37929;53.218;6.548;2023-02-28T13:29:03;8.85;;;5.03;;
51901;SDS011;37929;53.218;6.548;2023-02-28T13:47:36;6.68;;;4.72;;
51901;SDS011;37929;53.218;6.548;2023-02-28T14:06:47;5.28;;;4.00;;
51901;SDS011;37929;53.218;6.548;2023-02-28T14:09:23;5.80;;;4.45;;
51901;SDS011;37929;53.218;6.548;2023-02-28T14:11:52;7.43;;;4.30;;
51901;SDS011;37929;53.218;6.548;2023-02-28T14:17:03;5.55;;;4.50;;
51901;SDS011;37929;53.218;6.548;2023-02-28T14:19:34;7.45;;;4.45;;
51901;SDS011;37929;53.218;6.548;2023-02-28T14:22:09;6.05;;;4.40;;
51901;SDS011;37929;53.218;6.548;2023-02-28T14:36:00;9.20;;;5.18;;
51901;SDS011;37929;53.218;6.548;2023-02-28T14:38:36;8.70;;;4.85;;
51901;SDS011;37929;53.218;6.548;2023-02-28T14:41:12;6.53;;;4.95;;
51901;SDS011;37929;53.218;6.548;2023-02-28T14:43:50;7.47;;;5.15;;
51901;SDS011;37929;53.218;6.548;2023-02-28T14:46:19;7.15;;;5.00;;
51901;SDS011;37929;53.218;6.548;2023-02-28T14:48:46;6.45;;;4.80;;
51901;SDS011;37929;53.218;6.548;2023-02-28T14:51:18;10.02;;;5.00;;
51901;SDS011;37929;53.218;6.548;2023-02-28T14:53:48;6.53;;;5.07;;
51901;SDS011;37929;53.218;6.548;2023-02-28T14:56:23;7.50;;;4.88;;
51901;SDS011;37929;53.218;6.548;2023-02-28T14:58:52;8.07;;;5.28;;
51901;SDS011;37929;53.218;6.548;2023-02-28T15:01:20;6.45;;;4.80;;
51901;SDS011;37929;53.218;6.548;2023-02-28T15:03:48;6.13;;;5.00;;
51901;SDS011;37929;53.218;6.548;2023-02-28T15:06:23;8.63;;;6.32;;
51901;SDS011;37929;53.218;6.548;2023-02-28T15:09:06;7.22;;;5.30;;
51901;SDS011;37929;53.218;6.548;2023-02-28T15:11:38;8.40;;;5.50;;
51901;SDS011;37929;53.218;6.548;2023-02-28T15:14:05;7.22;;;5.07;;
51901;SDS011;37929;53.218;6.548;2023-02-28T15:19:01;5.95;;;4.90;;
51901;SDS011;37929;53.218;6.548;2023-02-28T15:21:31;9.73;;;6.13;;
51901;SDS011;37929;53.218;6.548;2023-02-28T15:26:59;7.35;;;5.55;;
51901;SDS011;37929;53.218;6.548;2023-02-28T15:29:29;7.13;;;5.22;;
51901;SDS011;37929;53.218;6.548;2023-02-28T15:32:03;6.72;;;4.70;;
51901;SDS011;37929;53.218;6.548;2023-02-28T15:34:35;6.88;;;5.15;;
51901;SDS011;37929;53.218;6.548;2023-02-28T15:37:25;6.85;;;4.85;;
51901;SDS011;37929;53.218;6.548;2023-02-28T15:39:52;8.27;;;5.00;;
51901;SDS011;37929;53.218;6.548;2023-02-28T15:42:22;6.57;;;4.85;;
51901;SDS011;37929;53.218;6.548;2023-02-28T15:44:54;7.53;;;4.97;;
51901;SDS011;37929;53.218;6.548;2023-02-28T15:47:21;6.38;;;4.80;;
51901;SDS011;37929;53.218;6.548;2023-02-28T15:49:51;7.15;;;5.13;;
51901;SDS011;37929;53.218;6.548;2023-02-28T15:52:39;6.18;;;4.78;;
51901;SDS011;37929;53.218;6.548;2023-02-28T15:55:08;8.32;;;5.90;;
51901;SDS011;37929;53.218;6.548;2023-02-28T15:57:49;7.15;;;5.30;;
51901;SDS011;37929;53.218;6.548;2023-02-28T16:00:19;7.90;;;5.43;;
51901;SDS011;37929;53.218;6.548;2023-02-28T16:02:46;8.02;;;5.60;;
51901;SDS011;37929;53.218;6.548;2023-02-28T16:07:53;7.70;;;5.60;;
51901;SDS011;37929;53.218;6.548;2023-02-28T16:10:22;7.30;;;5.85;;
51901;SDS011;37929;53.218;6.548;2023-02-28T16:12:54;8.73;;;5.88;;
51901;SDS011;37929;53.218;6.548;2023-02-28T16:15:28;7.60;;;5.35;;
51901;SDS011;37929;53.218;6.548;2023-02-28T16:17:56;9.30;;;5.85;;
51901;SDS011;37929;53.218;6.548;2023-02-28T16:20:27;8.32;;;5.80;;
51901;SDS011;37929;53.218;6.548;2023-02-28T16:22:55;7.80;;;5.90;;
51901;SDS011;37929;53.218;6.548;2023-02-28T16:25:26;8.10;;;5.47;;
51901;SDS011;37929;53.218;6.548;2023-02-28T16:27:59;10.32;;;6.00;;
51901;SDS011;37929;53.218;6.548;2023-02-28T16:30:26;8.40;;;6.20;;
51901;SDS011;37929;53.218;6.548;2023-02-28T16:32:56;8.57;;;6.13;;
51901;SDS011;37929;53.218;6.548;2023-02-28T16:35:22;9.43;;;6.43;;
51901;SDS011;37929;53.218;6.548;2023-02-28T16:37:50;9.32;;;6.20;;
51901;SDS011;37929;53.218;6.548;2023-02-28T16:40:18;8.18;;;6.50;;
51901;SDS011;37929;53.218;6.548;2023-02-28T16:42:46;7.97;;;5.88;;
51901;SDS011;37929;53.218;6.548;2023-02-28T16:45:29;8.98;;;6.82;;
51901;SDS011;37929;53.218;6.548;2023-02-28T16:47:55;7.78;;;5.63;;
51901;SDS011;37929;53.218;6.548;2023-02-28T16:50:22;9.50;;;6.55;;
51901;SDS011;37929;53.218;6.548;2023-02-28T16:52:50;8.70;;;5.90;;
51901;SDS011;37929;53.218;6.548;2023-02-28T16:55:20;7.85;;;5.95;;
51901;SDS011;37929;53.218;6.548;2023-02-28T16:57:49;8.07;;;6.18;;
51901;SDS011;37929;53.218;6.548;2023-02-28T17:00:21;10.18;;;7.15;;
51901;SDS011;37929;53.218;6.548;2023-02-28T17:02:48;8.15;;;6.50;;
51901;SDS011;37929;53.218;6.548;2023-02-28T17:05:14;9.23;;;6.65;;
51901;SDS011;37929;53.218;6.548;2023-02-28T17:07:40;10.88;;;7.07;;
51901;SDS011;37929;53.218;6.548;2023-02-28T17:10:11;9.48;;;7.32;;
51901;SDS011;37929;53.218;6.548;2023-02-28T17:12:50;9.07;;;6.43;;
51901;SDS011;37929;53.218;6.548;2023-02-28T17:15:18;11.52;;;7.57;;
51901;SDS011;37929;53.218;6.548;2023-02-28T17:17:45;9.20;;;7.25;;
51901;SDS011;37929;53.218;6.548;2023-02-28T17:20:20;12.00;;;7.80;;
51901;SDS011;37929;53.218;6.548;2023-02-28T17:22:52;17.40;;;8.82;;
51901;SDS011;37929;53.218;6.548;2023-02-28T17:25:18;12.48;;;8.43;;
51901;SDS011;37929;53.218;6.548;2023-02-28T17:27:45;12.07;;;9.15;;
51901;SDS011;37929;53.218;6.548;2023-02-28T17:32:41;11.25;;;8.10;;
51901;SDS011;37929;53.218;6.548;2023-02-28T17:35:07;13.07;;;8.00;;
51901;SDS011;37929;53.218;6.548;2023-02-28T17:37:33;14.98;;;8.23;;
51901;SDS011;37929;53.218;6.548;2023-02-28T17:39:59;12.68;;;8.73;;
51901;SDS011;37929;53.218;6.548;2023-02-28T17:42:25;13.55;;;8.52;;
51901;SDS011;37929;53.218;6.548;2023-02-28T17:44:51;13.88;;;9.52;;
51901;SDS011;37929;53.218;6.548;2023-02-28T17:47:17;12.25;;;7.40;;
51901;SDS011;37929;53.218;6.548;2023-02-28T17:49:43;11.07;;;8.15;;
51901;SDS011;37929;53.218;6.548;2023-02-28T17:52:09;10.45;;;7.13;;
51901;SDS011;37929;53.218;6.548;2023-02-28T17:54:34;11.38;;;7.28;;
51901;SDS011;37929;53.218;6.548;2023-02-28T17:57:00;10.27;;;6.93;;
51901;SDS011;37929;53.218;6.548;2023-02-28T17:59:26;8.73;;;6.82;;